sensor_id;sensor_type;location;lat;lon;timestamp;P1;durP1;ratioP1;P2;durP2;ratioP2
22164;SDS011;11248;52.512;13.520;2022-10-26T00:01:05;7.30;;;5.55;;
22164;SDS011;11248;52.512;13.520;2022-10-26T00:03:32;6.50;;;5.38;;
22164;SDS011;11248;52.512;13.520;2022-10-26T00:06:06;7.30;;;5.03;;
22164;SDS011;11248;52.512;13.520;2022-10-26T00:08:32;9.53;;;5.77;;
22164;SDS011;11248;52.512;13.520;2022-10-26T00:10:58;8.50;;;5.85;;
22164;SDS011;11248;52.512;13.520;2022-10-26T00:13:24;8.18;;;5.97;;
22164;SDS011;11248;52.512;13.520;2022-10-26T00:15:50;9.95;;;6.72;;
22164;SDS011;11248;52.512;13.520;2022-10-26T00:18:16;7.68;;;5.93;;
22164;SDS011;11248;52.512;13.520;2022-10-26T00:20:41;7.95;;;5.75;;
22164;SDS011;11248;52.512;13.520;2022-10-26T00:23:07;7.65;;;5.80;;
22164;SDS011;11248;52.512;13.520;2022-10-26T00:25:33;7.47;;;5.22;;
22164;SDS011;11248;52.512;13.520;2022-10-26T00:27:59;7.05;;;5.57;;
22164;SDS011;11248;52.512;13.520;2022-10-26T00:30:25;6.72;;;5.63;;
22164;SDS011;11248;52.512;13.520;2022-10-26T00:32:51;6.80;;;5.38;;
22164;SDS011;11248;52.512;13.520;2022-10-26T00:35:17;7.72;;;5.80;;
22164;SDS011;11248;52.512;13.520;2022-10-26T00:37:43;7.40;;;5.38;;
22164;SDS011;11248;52.512;13.520;2022-10-26T00:40:09;6.65;;;5.10;;
22164;SDS011;11248;52.512;13.520;2022-10-26T00:42:35;9.73;;;6.30;;
22164;SDS011;11248;52.512;13.520;2022-10-26T00:45:08;9.35;;;5.75;;
22164;SDS011;11248;52.512;13.520;2022-10-26T00:47:41;6.90;;;4.85;;
22164;SDS011;11248;52.512;13.520;2022-10-26T00:50:09;8.20;;;5.85;;
22164;SDS011;11248;52.512;13.520;2022-10-26T00:52:36;7.10;;;5.97;;
22164;SDS011;11248;52.512;13.520;2022-10-26T00:55:03;7.60;;;5.75;;
22164;SDS011;11248;52.512;13.520;2022-10-26T00:57:29;7.40;;;5.65;;
22164;SDS011;11248;52.512;13.520;2022-10-26T00:59:55;7.07;;;5.43;;
22164;SDS011;11248;52.512;13.520;2022-10-26T01:02:21;7.78;;;5.80;;
22164;SDS011;11248;52.512;13.520;2022-10-26T01:04:47;7.35;;;5.70;;
22164;SDS011;11248;52.512;13.520;2022-10-26T01:07:14;6.50;;;5.32;;
22164;SDS011;11248;52.512;13.520;2022-10-26T01:09:40;7.32;;;5.68;;
22164;SDS011;11248;52.512;13.520;2022-10-26T01:12:06;7.03;;;5.30;;
22164;SDS011;11248;52.512;13.520;2022-10-26T01:14:32;6.95;;;5.63;;
22164;SDS011;11248;52.512;13.520;2022-10-26T01:17:08;6.93;;;5.35;;
22164;SDS011;11248;52.512;13.520;2022-10-26T01:20:01;7.47;;;5.85;;
22164;SDS011;11248;52.512;13.520;2022-10-26T01:22:35;7.32;;;5.63;;
22164;SDS011;11248;52.512;13.520;2022-10-26T01:27:49;8.30;;;5.80;;
22164;SDS011;11248;52.512;13.520;2022-10-26T01:30:19;6.93;;;6.15;;
22164;SDS011;11248;52.512;13.520;2022-10-26T01:35:41;8.38;;;5.90;;
22164;SDS011;11248;52.512;13.520;2022-10-26T01:38:10;7.80;;;5.68;;
22164;SDS011;11248;52.512;13.520;2022-10-26T01:40:39;7.32;;;5.85;;
22164;SDS011;11248;52.512;13.520;2022-10-26T01:43:07;8.40;;;6.00;;
22164;SDS011;11248;52.512;13.520;2022-10-26T01:45:34;5.95;;;5.35;;
22164;SDS011;11248;52.512;13.520;2022-10-26T01:48:02;6.65;;;5.22;;
22164;SDS011;11248;52.512;13.520;2022-10-26T01:50:29;7.70;;;5.35;;
22164;SDS011;11248;52.512;13.520;2022-10-26T01:52:56;7.70;;;5.38;;
22164;SDS011;11248;52.512;13.520;2022-10-26T01:58:14;9.75;;;6.10;;
22164;SDS011;11248;52.512;13.520;2022-10-26T02:00:48;9.40;;;5.90;;
22164;SDS011;11248;52.512;13.520;2022-10-26T02:03:16;6.28;;;5.55;;
22164;SDS011;11248;52.512;13.520;2022-10-26T02:05:49;8.05;;;5.57;;
22164;SDS011;11248;52.512;13.520;2022-10-26T02:08:32;7.70;;;5.40;;
22164;SDS011;11248;52.512;13.520;2022-10-26T02:19:11;5.57;;;4.97;;
22164;SDS011;11248;52.512;13.520;2022-10-26T02:21:42;6.28;;;4.85;;
22164;SDS011;11248;52.512;13.520;2022-10-26T02:24:09;6.43;;;5.32;;
22164;SDS011;11248;52.512;13.520;2022-10-26T02:26:37;6.43;;;5.10;;
22164;SDS011;11248;52.512;13.520;2022-10-26T02:29:06;7.80;;;4.80;;
22164;SDS011;11248;52.512;13.520;2022-10-26T02:31:33;6.85;;;5.28;;
22164;SDS011;11248;52.512;13.520;2022-10-26T02:34:00;5.72;;;5.13;;
22164;SDS011;11248;52.512;13.520;2022-10-26T02:36:28;8.98;;;5.97;;
22164;SDS011;11248;52.512;13.520;2022-10-26T02:38:55;7.25;;;4.85;;
22164;SDS011;11248;52.512;13.520;2022-10-26T02:41:22;6.85;;;5.32;;
22164;SDS011;11248;52.512;13.520;2022-10-26T02:43:51;6.18;;;4.68;;
22164;SDS011;11248;52.512;13.520;2022-10-26T02:46:17;6.68;;;4.68;;
22164;SDS011;11248;52.512;13.520;2022-10-26T02:48:45;5.43;;;4.53;;
22164;SDS011;11248;52.512;13.520;2022-10-26T02:51:24;6.05;;;4.60;;
22164;SDS011;11248;52.512;13.520;2022-10-26T02:54:00;6.68;;;5.28;;
22164;SDS011;11248;52.512;13.520;2022-10-26T02:56:29;5.18;;;4.10;;
22164;SDS011;11248;52.512;13.520;2022-10-26T02:58:59;5.47;;;4.32;;
22164;SDS011;11248;52.512;13.520;2022-10-26T03:01:27;4.80;;;3.70;;
22164;SDS011;11248;52.512;13.520;2022-10-26T03:03:56;4.82;;;3.67;;
22164;SDS011;11248;52.512;13.520;2022-10-26T03:06:22;6.80;;;3.95;;
22164;SDS011;11248;52.512;13.520;2022-10-26T03:08:49;4.72;;;4.00;;
22164;SDS011;11248;52.512;13.520;2022-10-26T03:11:15;5.13;;;4.25;;
22164;SDS011;11248;52.512;13.520;2022-10-26T03:13:41;6.68;;;4.55;;
22164;SDS011;11248;52.512;13.520;2022-10-26T03:16:07;5.10;;;4.10;;
22164;SDS011;11248;52.512;13.520;2022-10-26T03:18:33;5.70;;;4.28;;
22164;SDS011;11248;52.512;13.520;2022-10-26T03:20:59;4.63;;;3.95;;
22164;SDS011;11248;52.512;13.520;2022-10-26T03:23:25;5.95;;;4.88;;
22164;SDS011;11248;52.512;13.520;2022-10-26T03:25:50;6.93;;;4.70;;
22164;SDS011;11248;52.512;13.520;2022-10-26T03:28:16;6.20;;;4.40;;
22164;SDS011;11248;52.512;13.520;2022-10-26T03:30:42;5.63;;;4.05;;
22164;SDS011;11248;52.512;13.520;2022-10-26T03:33:08;5.50;;;4.10;;
22164;SDS011;11248;52.512;13.520;2022-10-26T03:35:34;5.88;;;4.35;;
22164;SDS011;11248;52.512;13.520;2022-10-26T03:38:00;5.88;;;4.28;;
22164;SDS011;11248;52.512;13.520;2022-10-26T03:40:26;4.85;;;4.00;;
22164;SDS011;11248;52.512;13.520;2022-10-26T03:42:52;4.78;;;3.90;;
22164;SDS011;11248;52.512;13.520;2022-10-26T03:45:18;6.15;;;4.90;;
22164;SDS011;11248;52.512;13.520;2022-10-26T03:47:44;6.32;;;4.30;;
22164;SDS011;11248;52.512;13.520;2022-10-26T03:50:11;6.35;;;4.72;;
22164;SDS011;11248;52.512;13.520;2022-10-26T03:52:37;5.32;;;4.10;;
22164;SDS011;11248;52.512;13.520;2022-10-26T03:55:04;5.50;;;4.03;;
22164;SDS011;11248;52.512;13.520;2022-10-26T03:57:30;5.30;;;4.18;;
22164;SDS011;11248;52.512;13.520;2022-10-26T03:59:55;5.65;;;4.18;;
22164;SDS011;11248;52.512;13.520;2022-10-26T04:02:21;4.93;;;3.72;;
22164;SDS011;11248;52.512;13.520;2022-10-26T04:04:47;5.68;;;4.30;;
22164;SDS011;11248;52.512;13.520;2022-10-26T04:07:13;7.70;;;4.95;;
22164;SDS011;11248;52.512;13.520;2022-10-26T04:09:39;5.68;;;4.60;;
22164;SDS011;11248;52.512;13.520;2022-10-26T04:12:05;5.47;;;4.07;;
22164;SDS011;11248;52.512;13.520;2022-10-26T04:14:31;4.78;;;4.05;;
22164;SDS011;11248;52.512;13.520;2022-10-26T04:16:57;4.88;;;4.05;;
22164;SDS011;11248;52.512;13.520;2022-10-26T04:19:23;7.05;;;4.60;;
22164;SDS011;11248;52.512;13.520;2022-10-26T04:21:52;7.10;;;4.30;;
22164;SDS011;11248;52.512;13.520;2022-10-26T04:24:18;5.30;;;4.10;;
22164;SDS011;11248;52.512;13.520;2022-10-26T04:26:43;7.00;;;4.82;;
22164;SDS011;11248;52.512;13.520;2022-10-26T04:29:10;5.20;;;4.05;;
22164;SDS011;11248;52.512;13.520;2022-10-26T04:31:37;5.05;;;4.20;;
22164;SDS011;11248;52.512;13.520;2022-10-26T04:34:03;4.68;;;3.85;;
22164;SDS011;11248;52.512;13.520;2022-10-26T04:36:29;6.50;;;3.85;;
22164;SDS011;11248;52.512;13.520;2022-10-26T04:38:55;5.63;;;4.05;;
22164;SDS011;11248;52.512;13.520;2022-10-26T04:41:21;5.90;;;4.05;;
22164;SDS011;11248;52.512;13.520;2022-10-26T04:43:47;4.35;;;3.65;;
22164;SDS011;11248;52.512;13.520;2022-10-26T04:46:13;5.28;;;4.18;;
22164;SDS011;11248;52.512;13.520;2022-10-26T04:48:39;3.45;;;3.15;;
22164;SDS011;11248;52.512;13.520;2022-10-26T04:51:05;3.78;;;3.45;;
22164;SDS011;11248;52.512;13.520;2022-10-26T04:53:31;4.05;;;3.30;;
22164;SDS011;11248;52.512;13.520;2022-10-26T04:56:00;4.25;;;3.63;;
22164;SDS011;11248;52.512;13.520;2022-10-26T04:58:27;4.00;;;3.50;;
22164;SDS011;11248;52.512;13.520;2022-10-26T05:00:53;5.13;;;3.75;;
22164;SDS011;11248;52.512;13.520;2022-10-26T05:03:19;4.40;;;3.60;;
22164;SDS011;11248;52.512;13.520;2022-10-26T05:05:45;3.85;;;3.45;;
22164;SDS011;11248;52.512;13.520;2022-10-26T05:08:14;3.22;;;2.90;;
22164;SDS011;11248;52.512;13.520;2022-10-26T05:10:40;3.92;;;3.08;;
22164;SDS011;11248;52.512;13.520;2022-10-26T05:13:07;3.35;;;3.05;;
22164;SDS011;11248;52.512;13.520;2022-10-26T05:15:33;3.22;;;2.63;;
22164;SDS011;11248;52.512;13.520;2022-10-26T05:18:00;3.47;;;3.15;;
22164;SDS011;11248;52.512;13.520;2022-10-26T05:20:28;4.28;;;3.20;;
22164;SDS011;11248;52.512;13.520;2022-10-26T05:22:55;4.53;;;2.88;;
22164;SDS011;11248;52.512;13.520;2022-10-26T05:25:21;4.50;;;3.53;;
22164;SDS011;11248;52.512;13.520;2022-10-26T05:27:47;4.93;;;3.90;;
22164;SDS011;11248;52.512;13.520;2022-10-26T05:30:13;3.72;;;3.33;;
22164;SDS011;11248;52.512;13.520;2022-10-26T05:32:39;6.63;;;4.00;;
22164;SDS011;11248;52.512;13.520;2022-10-26T05:35:05;4.50;;;3.88;;
22164;SDS011;11248;52.512;13.520;2022-10-26T05:37:31;5.85;;;3.90;;
22164;SDS011;11248;52.512;13.520;2022-10-26T05:39:57;5.35;;;4.03;;
22164;SDS011;11248;52.512;13.520;2022-10-26T05:42:23;5.47;;;3.90;;
22164;SDS011;11248;52.512;13.520;2022-10-26T05:44:49;4.13;;;3.40;;
22164;SDS011;11248;52.512;13.520;2022-10-26T05:47:15;6.55;;;3.72;;
22164;SDS011;11248;52.512;13.520;2022-10-26T05:49:41;4.90;;;3.83;;
22164;SDS011;11248;52.512;13.520;2022-10-26T05:52:07;5.35;;;3.40;;
22164;SDS011;11248;52.512;13.520;2022-10-26T05:54:33;4.53;;;3.63;;
22164;SDS011;11248;52.512;13.520;2022-10-26T05:56:58;5.60;;;4.28;;
22164;SDS011;11248;52.512;13.520;2022-10-26T05:59:25;4.63;;;4.00;;
22164;SDS011;11248;52.512;13.520;2022-10-26T06:01:54;4.55;;;3.88;;
22164;SDS011;11248;52.512;13.520;2022-10-26T06:04:25;5.57;;;4.30;;
22164;SDS011;11248;52.512;13.520;2022-10-26T06:06:54;5.95;;;4.60;;
22164;SDS011;11248;52.512;13.520;2022-10-26T06:09:20;6.65;;;5.32;;
22164;SDS011;11248;52.512;13.520;2022-10-26T06:11:46;7.25;;;5.32;;
22164;SDS011;11248;52.512;13.520;2022-10-26T06:14:12;6.35;;;4.60;;
22164;SDS011;11248;52.512;13.520;2022-10-26T06:16:41;5.25;;;3.92;;
22164;SDS011;11248;52.512;13.520;2022-10-26T06:19:14;6.18;;;4.30;;
22164;SDS011;11248;52.512;13.520;2022-10-26T06:21:49;5.25;;;4.38;;
22164;SDS011;11248;52.512;13.520;2022-10-26T06:24:29;6.10;;;4.10;;
22164;SDS011;11248;52.512;13.520;2022-10-26T06:27:00;6.22;;;4.20;;
22164;SDS011;11248;52.512;13.520;2022-10-26T06:31:57;5.68;;;4.25;;
22164;SDS011;11248;52.512;13.520;2022-10-26T06:34:24;5.70;;;4.40;;
22164;SDS011;11248;52.512;13.520;2022-10-26T06:36:51;5.57;;;4.35;;
22164;SDS011;11248;52.512;13.520;2022-10-26T06:39:18;6.13;;;4.05;;
22164;SDS011;11248;52.512;13.520;2022-10-26T06:41:44;7.38;;;4.45;;
22164;SDS011;11248;52.512;13.520;2022-10-26T06:44:17;5.10;;;4.05;;
22164;SDS011;11248;52.512;13.520;2022-10-26T06:46:47;5.38;;;3.78;;
22164;SDS011;11248;52.512;13.520;2022-10-26T06:51:46;6.38;;;4.45;;
22164;SDS011;11248;52.512;13.520;2022-10-26T06:54:22;6.28;;;4.22;;
22164;SDS011;11248;52.512;13.520;2022-10-26T06:56:50;5.45;;;4.00;;
22164;SDS011;11248;52.512;13.520;2022-10-26T07:02:02;5.90;;;4.35;;
22164;SDS011;11248;52.512;13.520;2022-10-26T07:04:28;6.03;;;4.32;;
22164;SDS011;11248;52.512;13.520;2022-10-26T07:06:54;6.28;;;4.10;;
22164;SDS011;11248;52.512;13.520;2022-10-26T07:09:21;4.55;;;3.70;;
22164;SDS011;11248;52.512;13.520;2022-10-26T07:11:47;4.53;;;3.80;;
22164;SDS011;11248;52.512;13.520;2022-10-26T07:14:13;6.05;;;3.97;;
22164;SDS011;11248;52.512;13.520;2022-10-26T07:16:39;6.93;;;4.35;;
22164;SDS011;11248;52.512;13.520;2022-10-26T07:19:05;5.10;;;3.85;;
22164;SDS011;11248;52.512;13.520;2022-10-26T07:21:31;7.60;;;4.68;;
22164;SDS011;11248;52.512;13.520;2022-10-26T07:23:56;9.18;;;5.40;;
22164;SDS011;11248;52.512;13.520;2022-10-26T07:26:22;7.22;;;5.22;;
22164;SDS011;11248;52.512;13.520;2022-10-26T07:28:49;7.20;;;4.93;;
22164;SDS011;11248;52.512;13.520;2022-10-26T07:31:15;8.50;;;4.90;;
22164;SDS011;11248;52.512;13.520;2022-10-26T07:33:41;7.28;;;4.78;;
22164;SDS011;11248;52.512;13.520;2022-10-26T07:36:08;7.18;;;4.80;;
22164;SDS011;11248;52.512;13.520;2022-10-26T07:38:35;7.32;;;4.80;;
22164;SDS011;11248;52.512;13.520;2022-10-26T07:41:01;8.45;;;5.13;;
22164;SDS011;11248;52.512;13.520;2022-10-26T07:43:27;6.55;;;4.55;;
22164;SDS011;11248;52.512;13.520;2022-10-26T07:45:53;6.55;;;5.28;;
22164;SDS011;11248;52.512;13.520;2022-10-26T07:48:19;8.55;;;5.90;;
22164;SDS011;11248;52.512;13.520;2022-10-26T07:50:45;6.35;;;4.95;;
22164;SDS011;11248;52.512;13.520;2022-10-26T07:53:11;6.32;;;4.80;;
22164;SDS011;11248;52.512;13.520;2022-10-26T07:55:37;7.30;;;4.55;;
22164;SDS011;11248;52.512;13.520;2022-10-26T07:58:02;6.90;;;4.90;;
22164;SDS011;11248;52.512;13.520;2022-10-26T08:00:28;7.28;;;5.35;;
22164;SDS011;11248;52.512;13.520;2022-10-26T08:02:55;7.75;;;5.13;;
22164;SDS011;11248;52.512;13.520;2022-10-26T08:05:20;5.22;;;4.72;;
22164;SDS011;11248;52.512;13.520;2022-10-26T08:07:46;6.45;;;5.00;;
22164;SDS011;11248;52.512;13.520;2022-10-26T08:10:13;5.93;;;4.35;;
22164;SDS011;11248;52.512;13.520;2022-10-26T08:12:39;6.00;;;5.25;;
22164;SDS011;11248;52.512;13.520;2022-10-26T08:15:05;5.65;;;4.80;;
22164;SDS011;11248;52.512;13.520;2022-10-26T08:17:32;5.75;;;4.78;;
22164;SDS011;11248;52.512;13.520;2022-10-26T08:19:58;6.50;;;5.25;;
22164;SDS011;11248;52.512;13.520;2022-10-26T08:22:24;6.13;;;5.13;;
22164;SDS011;11248;52.512;13.520;2022-10-26T08:24:50;6.80;;;4.88;;
22164;SDS011;11248;52.512;13.520;2022-10-26T08:27:16;7.57;;;5.00;;
22164;SDS011;11248;52.512;13.520;2022-10-26T08:29:42;6.88;;;4.97;;
22164;SDS011;11248;52.512;13.520;2022-10-26T08:32:08;7.35;;;5.25;;
22164;SDS011;11248;52.512;13.520;2022-10-26T08:34:34;7.00;;;5.05;;
22164;SDS011;11248;52.512;13.520;2022-10-26T08:37:00;6.28;;;5.07;;
22164;SDS011;11248;52.512;13.520;2022-10-26T08:39:26;6.05;;;4.90;;
22164;SDS011;11248;52.512;13.520;2022-10-26T08:42:00;5.85;;;5.07;;
22164;SDS011;11248;52.512;13.520;2022-10-26T08:44:35;6.50;;;4.38;;
22164;SDS011;11248;52.512;13.520;2022-10-26T08:47:08;7.00;;;5.07;;
22164;SDS011;11248;52.512;13.520;2022-10-26T08:49:38;5.90;;;5.00;;
22164;SDS011;11248;52.512;13.520;2022-10-26T08:52:08;9.52;;;6.28;;
22164;SDS011;11248;52.512;13.520;2022-10-26T08:54:37;6.57;;;5.28;;
22164;SDS011;11248;52.512;13.520;2022-10-26T08:57:10;6.32;;;5.30;;
22164;SDS011;11248;52.512;13.520;2022-10-26T08:59:37;8.85;;;5.93;;
22164;SDS011;11248;52.512;13.520;2022-10-26T09:02:12;8.18;;;6.13;;
22164;SDS011;11248;52.512;13.520;2022-10-26T09:04:38;8.55;;;5.75;;
22164;SDS011;11248;52.512;13.520;2022-10-26T09:15:02;6.32;;;5.18;;
22164;SDS011;11248;52.512;13.520;2022-10-26T09:20:18;6.90;;;5.40;;
22164;SDS011;11248;52.512;13.520;2022-10-26T09:22:56;6.13;;;5.00;;
22164;SDS011;11248;52.512;13.520;2022-10-26T09:25:26;14.80;;;6.45;;
22164;SDS011;11248;52.512;13.520;2022-10-26T09:27:54;8.57;;;5.47;;
22164;SDS011;11248;52.512;13.520;2022-10-26T09:30:21;6.57;;;4.72;;
22164;SDS011;11248;52.512;13.520;2022-10-26T09:32:47;7.88;;;4.85;;
22164;SDS011;11248;52.512;13.520;2022-10-26T09:35:21;7.45;;;5.43;;
22164;SDS011;11248;52.512;13.520;2022-10-26T09:37:55;8.38;;;5.35;;
22164;SDS011;11248;52.512;13.520;2022-10-26T09:40:24;9.82;;;5.70;;
22164;SDS011;11248;52.512;13.520;2022-10-26T09:42:54;6.03;;;5.13;;
22164;SDS011;11248;52.512;13.520;2022-10-26T09:45:24;6.95;;;4.68;;
22164;SDS011;11248;52.512;13.520;2022-10-26T09:47:53;9.23;;;5.93;;
22164;SDS011;11248;52.512;13.520;2022-10-26T09:50:25;7.47;;;5.63;;
22164;SDS011;11248;52.512;13.520;2022-10-26T09:52:52;6.75;;;5.03;;
22164;SDS011;11248;52.512;13.520;2022-10-26T09:55:18;6.75;;;4.97;;
22164;SDS011;11248;52.512;13.520;2022-10-26T09:57:49;7.60;;;4.60;;
22164;SDS011;11248;52.512;13.520;2022-10-26T10:00:17;8.73;;;4.55;;
22164;SDS011;11248;52.512;13.520;2022-10-26T10:02:44;9.25;;;4.25;;
22164;SDS011;11248;52.512;13.520;2022-10-26T10:05:31;5.85;;;3.72;;
22164;SDS011;11248;52.512;13.520;2022-10-26T10:13:25;7.65;;;3.67;;
22164;SDS011;11248;52.512;13.520;2022-10-26T10:16:02;5.47;;;3.03;;
22164;SDS011;11248;52.512;13.520;2022-10-26T10:18:29;4.55;;;2.88;;
22164;SDS011;11248;52.512;13.520;2022-10-26T10:20:56;4.88;;;2.92;;
22164;SDS011;11248;52.512;13.520;2022-10-26T10:23:26;6.43;;;3.00;;
22164;SDS011;11248;52.512;13.520;2022-10-26T10:26:06;8.02;;;3.25;;
22164;SDS011;11248;52.512;13.520;2022-10-26T10:28:33;4.43;;;2.88;;
22164;SDS011;11248;52.512;13.520;2022-10-26T10:31:16;5.55;;;2.83;;
22164;SDS011;11248;52.512;13.520;2022-10-26T10:33:43;3.70;;;2.53;;
22164;SDS011;11248;52.512;13.520;2022-10-26T10:36:12;5.72;;;2.80;;
22164;SDS011;11248;52.512;13.520;2022-10-26T10:38:40;5.10;;;2.97;;
22164;SDS011;11248;52.512;13.520;2022-10-26T10:41:13;6.07;;;2.65;;
22164;SDS011;11248;52.512;13.520;2022-10-26T10:43:47;4.57;;;2.72;;
22164;SDS011;11248;52.512;13.520;2022-10-26T10:46:17;2.95;;;2.10;;
22164;SDS011;11248;52.512;13.520;2022-10-26T10:48:48;3.88;;;2.40;;
22164;SDS011;11248;52.512;13.520;2022-10-26T10:51:20;2.70;;;2.03;;
22164;SDS011;11248;52.512;13.520;2022-10-26T10:53:51;2.20;;;1.70;;
22164;SDS011;11248;52.512;13.520;2022-10-26T10:59:08;4.25;;;2.13;;
22164;SDS011;11248;52.512;13.520;2022-10-26T11:01:37;3.50;;;2.25;;
22164;SDS011;11248;52.512;13.520;2022-10-26T11:06:49;3.85;;;1.90;;
22164;SDS011;11248;52.512;13.520;2022-10-26T11:09:17;3.60;;;1.98;;
22164;SDS011;11248;52.512;13.520;2022-10-26T11:11:48;7.95;;;2.53;;
22164;SDS011;11248;52.512;13.520;2022-10-26T11:14:25;2.60;;;1.65;;
22164;SDS011;11248;52.512;13.520;2022-10-26T11:17:03;4.63;;;1.77;;
22164;SDS011;11248;52.512;13.520;2022-10-26T11:19:41;4.28;;;1.70;;
22164;SDS011;11248;52.512;13.520;2022-10-26T11:22:13;2.88;;;1.42;;
22164;SDS011;11248;52.512;13.520;2022-10-26T11:27:24;3.40;;;1.83;;
22164;SDS011;11248;52.512;13.520;2022-10-26T11:29:53;2.25;;;1.58;;
22164;SDS011;11248;52.512;13.520;2022-10-26T11:32:33;1.40;;;1.27;;
22164;SDS011;11248;52.512;13.520;2022-10-26T11:37:44;3.70;;;1.50;;
22164;SDS011;11248;52.512;13.520;2022-10-26T11:40:23;3.30;;;1.40;;
22164;SDS011;11248;52.512;13.520;2022-10-26T11:42:56;4.07;;;1.50;;
22164;SDS011;11248;52.512;13.520;2022-10-26T11:45:29;2.63;;;1.45;;
22164;SDS011;11248;52.512;13.520;2022-10-26T11:48:05;2.55;;;1.35;;
22164;SDS011;11248;52.512;13.520;2022-10-26T11:50:40;4.80;;;1.50;;
22164;SDS011;11248;52.512;13.520;2022-10-26T11:53:11;2.30;;;1.13;;
22164;SDS011;11248;52.512;13.520;2022-10-26T11:55:39;2.80;;;1.30;;
22164;SDS011;11248;52.512;13.520;2022-10-26T11:58:07;1.35;;;1.00;;
22164;SDS011;11248;52.512;13.520;2022-10-26T12:00:35;3.05;;;1.13;;
22164;SDS011;11248;52.512;13.520;2022-10-26T12:03:07;1.70;;;1.17;;
22164;SDS011;11248;52.512;13.520;2022-10-26T12:05:35;2.05;;;1.13;;
22164;SDS011;11248;52.512;13.520;2022-10-26T12:08:17;2.78;;;1.30;;
22164;SDS011;11248;52.512;13.520;2022-10-26T12:10:47;2.40;;;1.25;;
22164;SDS011;11248;52.512;13.520;2022-10-26T12:13:20;4.32;;;1.08;;
22164;SDS011;11248;52.512;13.520;2022-10-26T12:19:11;2.40;;;1.52;;
22164;SDS011;11248;52.512;13.520;2022-10-26T12:21:29;2.45;;;1.20;;
22164;SDS011;11248;52.512;13.520;2022-10-26T12:23:59;2.08;;;1.20;;
22164;SDS011;11248;52.512;13.520;2022-10-26T12:34:02;1.30;;;1.08;;
22164;SDS011;11248;52.512;13.520;2022-10-26T12:49:59;2.47;;;0.90;;
22164;SDS011;11248;52.512;13.520;2022-10-26T12:52:27;3.15;;;1.17;;
22164;SDS011;11248;52.512;13.520;2022-10-26T12:55:01;1.27;;;1.05;;
22164;SDS011;11248;52.512;13.520;2022-10-26T12:57:34;2.33;;;1.10;;
22164;SDS011;11248;52.512;13.520;2022-10-26T13:00:11;3.00;;;1.20;;
22164;SDS011;11248;52.512;13.520;2022-10-26T13:02:47;2.63;;;1.40;;
22164;SDS011;11248;52.512;13.520;2022-10-26T13:05:24;2.08;;;1.00;;
22164;SDS011;11248;52.512;13.520;2022-10-26T13:07:59;2.95;;;1.40;;
22164;SDS011;11248;52.512;13.520;2022-10-26T13:10:26;2.05;;;1.20;;
22164;SDS011;11248;52.512;13.520;2022-10-26T13:12:53;2.03;;;1.10;;
22164;SDS011;11248;52.512;13.520;2022-10-26T13:15:21;3.33;;;1.00;;
22164;SDS011;11248;52.512;13.520;2022-10-26T13:17:59;1.90;;;1.27;;
22164;SDS011;11248;52.512;13.520;2022-10-26T13:20:25;1.38;;;1.10;;
22164;SDS011;11248;52.512;13.520;2022-10-26T13:22:52;4.72;;;1.15;;
22164;SDS011;11248;52.512;13.520;2022-10-26T13:25:22;2.35;;;1.20;;
22164;SDS011;11248;52.512;13.520;2022-10-26T13:27:59;2.40;;;1.38;;
22164;SDS011;11248;52.512;13.520;2022-10-26T13:32:57;1.95;;;1.38;;
22164;SDS011;11248;52.512;13.520;2022-10-26T13:35:24;2.17;;;1.15;;
22164;SDS011;11248;52.512;13.520;2022-10-26T13:37:52;3.13;;;1.42;;
22164;SDS011;11248;52.512;13.520;2022-10-26T13:40:22;3.85;;;1.35;;
22164;SDS011;11248;52.512;13.520;2022-10-26T13:43:01;3.03;;;1.45;;
22164;SDS011;11248;52.512;13.520;2022-10-26T13:45:28;3.72;;;1.60;;
22164;SDS011;11248;52.512;13.520;2022-10-26T13:47:56;2.45;;;1.38;;
22164;SDS011;11248;52.512;13.520;2022-10-26T13:50:24;2.20;;;1.20;;
22164;SDS011;11248;52.512;13.520;2022-10-26T13:52:56;3.55;;;1.50;;
22164;SDS011;11248;52.512;13.520;2022-10-26T13:55:30;2.75;;;1.48;;
22164;SDS011;11248;52.512;13.520;2022-10-26T14:05:52;3.30;;;1.50;;
22164;SDS011;11248;52.512;13.520;2022-10-26T14:08:18;3.22;;;1.30;;
22164;SDS011;11248;52.512;13.520;2022-10-26T14:10:45;1.48;;;1.15;;
22164;SDS011;11248;52.512;13.520;2022-10-26T14:13:13;1.73;;;1.30;;
22164;SDS011;11248;52.512;13.520;2022-10-26T14:15:43;1.30;;;1.20;;
22164;SDS011;11248;52.512;13.520;2022-10-26T14:18:15;1.63;;;1.30;;
22164;SDS011;11248;52.512;13.520;2022-10-26T14:20:41;3.72;;;1.50;;
22164;SDS011;11248;52.512;13.520;2022-10-26T14:23:28;2.20;;;1.10;;
22164;SDS011;11248;52.512;13.520;2022-10-26T14:25:57;1.55;;;1.33;;
22164;SDS011;11248;52.512;13.520;2022-10-26T14:28:27;2.65;;;1.40;;
22164;SDS011;11248;52.512;13.520;2022-10-26T14:30:53;3.95;;;1.55;;
22164;SDS011;11248;52.512;13.520;2022-10-26T14:33:27;3.13;;;1.25;;
22164;SDS011;11248;52.512;13.520;2022-10-26T14:35:53;3.92;;;1.48;;
22164;SDS011;11248;52.512;13.520;2022-10-26T14:38:21;2.80;;;1.08;;
22164;SDS011;11248;52.512;13.520;2022-10-26T14:40:50;2.05;;;1.23;;
22164;SDS011;11248;52.512;13.520;2022-10-26T14:43:17;2.70;;;1.35;;
22164;SDS011;11248;52.512;13.520;2022-10-26T14:45:47;2.00;;;1.17;;
22164;SDS011;11248;52.512;13.520;2022-10-26T14:48:21;2.72;;;1.30;;
22164;SDS011;11248;52.512;13.520;2022-10-26T14:50:58;2.20;;;1.20;;
22164;SDS011;11248;52.512;13.520;2022-10-26T14:53:28;2.55;;;1.20;;
22164;SDS011;11248;52.512;13.520;2022-10-26T14:55:55;1.33;;;1.20;;
22164;SDS011;11248;52.512;13.520;2022-10-26T14:58:30;2.35;;;1.42;;
22164;SDS011;11248;52.512;13.520;2022-10-26T15:01:20;2.30;;;1.33;;
22164;SDS011;11248;52.512;13.520;2022-10-26T15:03:51;2.22;;;1.38;;
22164;SDS011;11248;52.512;13.520;2022-10-26T15:08:53;2.95;;;1.30;;
22164;SDS011;11248;52.512;13.520;2022-10-26T15:11:19;3.70;;;1.50;;
22164;SDS011;11248;52.512;13.520;2022-10-26T15:13:45;1.33;;;1.15;;
22164;SDS011;11248;52.512;13.520;2022-10-26T15:16:15;3.47;;;1.30;;
22164;SDS011;11248;52.512;13.520;2022-10-26T15:18:42;2.75;;;1.42;;
22164;SDS011;11248;52.512;13.520;2022-10-26T15:21:23;2.13;;;1.20;;
22164;SDS011;11248;52.512;13.520;2022-10-26T15:23:50;2.10;;;1.17;;
22164;SDS011;11248;52.512;13.520;2022-10-26T15:26:16;4.97;;;1.40;;
22164;SDS011;11248;52.512;13.520;2022-10-26T15:28:42;2.92;;;1.55;;
22164;SDS011;11248;52.512;13.520;2022-10-26T15:33:35;2.50;;;1.50;;
22164;SDS011;11248;52.512;13.520;2022-10-26T15:36:10;3.33;;;1.70;;
22164;SDS011;11248;52.512;13.520;2022-10-26T15:38:37;2.10;;;1.80;;
22164;SDS011;11248;52.512;13.520;2022-10-26T15:41:03;4.18;;;1.95;;
22164;SDS011;11248;52.512;13.520;2022-10-26T15:43:29;3.13;;;2.33;;
22164;SDS011;11248;52.512;13.520;2022-10-26T15:45:55;3.55;;;2.10;;
22164;SDS011;11248;52.512;13.520;2022-10-26T15:50:47;4.00;;;2.20;;
22164;SDS011;11248;52.512;13.520;2022-10-26T15:53:20;2.90;;;2.20;;
22164;SDS011;11248;52.512;13.520;2022-10-26T15:55:46;3.05;;;1.80;;
22164;SDS011;11248;52.512;13.520;2022-10-26T15:58:13;3.00;;;2.17;;
22164;SDS011;11248;52.512;13.520;2022-10-26T16:00:39;4.50;;;3.17;;
22164;SDS011;11248;52.512;13.520;2022-10-26T16:03:05;3.60;;;2.70;;
22164;SDS011;11248;52.512;13.520;2022-10-26T16:05:31;3.75;;;2.80;;
22164;SDS011;11248;52.512;13.520;2022-10-26T16:07:57;4.78;;;2.40;;
22164;SDS011;11248;52.512;13.520;2022-10-26T16:10:23;3.20;;;2.30;;
22164;SDS011;11248;52.512;13.520;2022-10-26T16:12:50;3.63;;;1.85;;
22164;SDS011;11248;52.512;13.520;2022-10-26T16:15:20;2.40;;;1.60;;